sensor_id;sensor_type;location;lat;lon;timestamp;pressure;altitude;pressure_sealevel;temperature;humidity
47636;BME280;33364;50.766;15.338;2022-11-24T00:01:40;93948.19;;;0.92;100.00
47636;BME280;33364;50.766;15.338;2022-11-24T00:04:05;93938.09;;;0.91;100.00
47636;BME280;33364;50.766;15.338;2022-11-24T00:06:33;93950.75;;;0.92;100.00
47636;BME280;33364;50.766;15.338;2022-11-24T00:09:00;93957.47;;;0.93;100.00
47636;BME280;33364;50.766;15.338;2022-11-24T00:11:30;93946.47;;;0.93;100.00
47636;BME280;33364;50.766;15.338;2022-11-24T00:13:57;93948.84;;;0.96;100.00
47636;BME280;33364;50.766;15.338;2022-11-24T00:16:29;93953.84;;;0.97;100.00
47636;BME280;33364;50.766;15.338;2022-11-24T00:18:57;93955.47;;;0.98;100.00
47636;BME280;33364;50.766;15.338;2022-11-24T00:21:24;93951.72;;;1.04;100.00
47636;BME280;33364;50.766;15.338;2022-11-24T00:23:50;93961.84;;;1.06;100.00
47636;BME280;33364;50.766;15.338;2022-11-24T00:26:28;93959.09;;;1.09;100.00
47636;BME280;33364;50.766;15.338;2022-11-24T00:28:57;93953.91;;;1.10;100.00
47636;BME280;33364;50.766;15.338;2022-11-24T00:31:32;93961.66;;;1.09;100.00
47636;BME280;33364;50.766;15.338;2022-11-24T00:34:00;93961.84;;;1.06;100.00
47636;BME280;33364;50.766;15.338;2022-11-24T00:36:28;93962.69;;;1.06;100.00
47636;BME280;33364;50.766;15.338;2022-11-24T00:38:56;93965.13;;;1.08;100.00
47636;BME280;33364;50.766;15.338;2022-11-24T00:41:23;93970.22;;;1.08;100.00
47636;BME280;33364;50.766;15.338;2022-11-24T00:43:49;93976.31;;;1.05;100.00
47636;BME280;33364;50.766;15.338;2022-11-24T00:46:14;93975.47;;;1.04;100.00
47636;BME280;33364;50.766;15.338;2022-11-24T00:48:40;93983.94;;;1.05;100.00
47636;BME280;33364;50.766;15.338;2022-11-24T00:51:08;93984.59;;;1.09;100.00
47636;BME280;33364;50.766;15.338;2022-11-24T00:53:34;93987.97;;;1.09;100.00
47636;BME280;33364;50.766;15.338;2022-11-24T00:56:00;93981.06;;;1.11;100.00
47636;BME280;33364;50.766;15.338;2022-11-24T00:58:28;93988.44;;;1.16;100.00
47636;BME280;33364;50.766;15.338;2022-11-24T01:00:54;93982.44;;;1.17;100.00
47636;BME280;33364;50.766;15.338;2022-11-24T01:03:20;93982.69;;;1.12;100.00
47636;BME280;33364;50.766;15.338;2022-11-24T01:05:47;93981.13;;;1.10;100.00
47636;BME280;33364;50.766;15.338;2022-11-24T01:08:13;93989.69;;;1.09;100.00
47636;BME280;33364;50.766;15.338;2022-11-24T01:10:39;93982.41;;;1.02;100.00
47636;BME280;33364;50.766;15.338;2022-11-24T01:13:04;93987.34;;;1.06;100.00
47636;BME280;33364;50.766;15.338;2022-11-24T01:15:30;93983.88;;;1.07;100.00
47636;BME280;33364;50.766;15.338;2022-11-24T01:17:56;93980.50;;;1.06;100.00
47636;BME280;33364;50.766;15.338;2022-11-24T01:20:22;93983.06;;;1.06;100.00
47636;BME280;33364;50.766;15.338;2022-11-24T01:22:48;93984.59;;;1.09;100.00
47636;BME280;33364;50.766;15.338;2022-11-24T01:25:14;93986.44;;;1.07;100.00
47636;BME280;33364;50.766;15.338;2022-11-24T01:27:40;93988.16;;;1.06;100.00
47636;BME280;33364;50.766;15.338;2022-11-24T01:30:07;93992.44;;;1.06;100.00
47636;BME280;33364;50.766;15.338;2022-11-24T01:32:34;93997.06;;;0.99;100.00
47636;BME280;33364;50.766;15.338;2022-11-24T01:35:01;93992.31;;;0.93;100.00
47636;BME280;33364;50.766;15.338;2022-11-24T01:37:27;93992.59;;;0.88;100.00
47636;BME280;33364;50.766;15.338;2022-11-24T01:39:52;93994.47;;;0.85;100.00
47636;BME280;33364;50.766;15.338;2022-11-24T01:42:18;93988.50;;;0.86;100.00
47636;BME280;33364;50.766;15.338;2022-11-24T01:44:44;93994.31;;;0.88;100.00
47636;BME280;33364;50.766;15.338;2022-11-24T01:47:31;93992.59;;;0.88;100.00
47636;BME280;33364;50.766;15.338;2022-11-24T01:49:59;93987.84;;;0.82;100.00
47636;BME280;33364;50.766;15.338;2022-11-24T01:52:38;93983.72;;;0.80;100.00
47636;BME280;33364;50.766;15.338;2022-11-24T01:55:09;93986.63;;;0.73;100.00
47636;BME280;33364;50.766;15.338;2022-11-24T01:57:42;93986.38;;;0.78;100.00
47636;BME280;33364;50.766;15.338;2022-11-24T02:00:12;93985.47;;;0.79;100.00
47636;BME280;33364;50.766;15.338;2022-11-24T02:02:40;93987.94;;;0.81;100.00
47636;BME280;33364;50.766;15.338;2022-11-24T02:05:10;93993.09;;;0.79;100.00
47636;BME280;33364;50.766;15.338;2022-11-24T02:07:37;93993.22;;;0.77;100.00
47636;BME280;33364;50.766;15.338;2022-11-24T02:10:07;93989.44;;;0.69;100.00
47636;BME280;33364;50.766;15.338;2022-11-24T02:12:35;93988.19;;;0.62;100.00
47636;BME280;33364;50.766;15.338;2022-11-24T02:15:02;93985.63;;;0.62;100.00
47636;BME280;33364;50.766;15.338;2022-11-24T02:17:28;93994.75;;;0.50;100.00
47636;BME280;33364;50.766;15.338;2022-11-24T02:19:56;93988.84;;;0.49;100.00
47636;BME280;33364;50.766;15.338;2022-11-24T02:25:35;93982.13;;;0.48;100.00
47636;BME280;33364;50.766;15.338;2022-11-24T02:28:06;93976.13;;;0.49;100.00
47636;BME280;33364;50.766;15.338;2022-11-24T02:30:33;93981.41;;;0.46;100.00
47636;BME280;33364;50.766;15.338;2022-11-24T02:32:59;93985.03;;;0.42;100.00
47636;BME280;33364;50.766;15.338;2022-11-24T02:35:27;93985.75;;;0.44;100.00
47636;BME280;33364;50.766;15.338;2022-11-24T02:37:53;93982.94;;;0.49;100.00
47636;BME280;33364;50.766;15.338;2022-11-24T02:40:21;93987.88;;;0.52;100.00
47636;BME280;33364;50.766;15.338;2022-11-24T02:42:54;93984.25;;;0.56;100.00
47636;BME280;33364;50.766;15.338;2022-11-24T02:45:21;93984.06;;;0.59;100.00
47636;BME280;33364;50.766;15.338;2022-11-24T02:47:48;93986.53;;;0.61;100.00
47636;BME280;33364;50.766;15.338;2022-11-24T02:50:14;93983.81;;;0.64;100.00
47636;BME280;33364;50.766;15.338;2022-11-24T02:52:40;93981.75;;;0.70;100.00
47636;BME280;33364;50.766;15.338;2022-11-24T02:55:06;93986.00;;;0.70;100.00
47636;BME280;33364;50.766;15.338;2022-11-24T02:57:31;93987.41;;;0.75;100.00
47636;BME280;33364;50.766;15.338;2022-11-24T02:59:57;93980.00;;;0.71;100.00
47636;BME280;33364;50.766;15.338;2022-11-24T03:02:23;93980.56;;;0.76;100.00
47636;BME280;33364;50.766;15.338;2022-11-24T03:04:48;93981.03;;;0.83;100.00
47636;BME280;33364;50.766;15.338;2022-11-24T03:07:14;93972.81;;;0.77;100.00
47636;BME280;33364;50.766;15.338;2022-11-24T03:09:39;93975.47;;;0.76;100.00
47636;BME280;33364;50.766;15.338;2022-11-24T03:12:06;93973.47;;;0.81;100.00
47636;BME280;33364;50.766;15.338;2022-11-24T03:14:31;93974.19;;;0.83;100.00
47636;BME280;33364;50.766;15.338;2022-11-24T03:16:57;93977.47;;;0.85;100.00
47636;BME280;33364;50.766;15.338;2022-11-24T03:19:22;93980.84;;;0.86;100.00
47636;BME280;33364;50.766;15.338;2022-11-24T03:21:48;93977.66;;;0.82;100.00
47636;BME280;33364;50.766;15.338;2022-11-24T03:24:14;93974.09;;;0.85;100.00
47636;BME280;33364;50.766;15.338;2022-11-24T03:26:40;93979.03;;;0.88;100.00
47636;BME280;33364;50.766;15.338;2022-11-24T03:29:07;93981.69;;;0.86;100.00
47636;BME280;33364;50.766;15.338;2022-11-24T03:31:33;93973.03;;;0.89;100.00
47636;BME280;33364;50.766;15.338;2022-11-24T03:33:59;93973.84;;;0.89;100.00
47636;BME280;33364;50.766;15.338;2022-11-24T03:36:25;93984.50;;;0.96;100.00
47636;BME280;33364;50.766;15.338;2022-11-24T03:38:50;93975.94;;;0.97;100.00
47636;BME280;33364;50.766;15.338;2022-11-24T03:41:17;93977.13;;;0.91;100.00
47636;BME280;33364;50.766;15.338;2022-11-24T03:43:43;93984.69;;;0.93;100.00
47636;BME280;33364;50.766;15.338;2022-11-24T03:46:09;93986.31;;;0.94;100.00
47636;BME280;33364;50.766;15.338;2022-11-24T03:48:35;93991.97;;;0.99;100.00
47636;BME280;33364;50.766;15.338;2022-11-24T03:51:01;93991.97;;;0.99;100.00
47636;BME280;33364;50.766;15.338;2022-11-24T03:53:29;93993.94;;;0.94;100.00
47636;BME280;33364;50.766;15.338;2022-11-24T03:55:56;93992.41;;;0.91;100.00
47636;BME280;33364;50.766;15.338;2022-11-24T03:58:22;94000.13;;;0.90;100.00
47636;BME280;33364;50.766;15.338;2022-11-24T04:00:49;94008.59;;;0.90;100.00
47636;BME280;33364;50.766;15.338;2022-11-24T04:03:15;94015.41;;;0.90;100.00
47636;BME280;33364;50.766;15.338;2022-11-24T04:05:41;94017.69;;;0.94;100.00
47636;BME280;33364;50.766;15.338;2022-11-24T04:08:07;94011.69;;;0.95;100.00
47636;BME280;33364;50.766;15.338;2022-11-24T04:10:35;94016.72;;;0.97;100.00
47636;BME280;33364;50.766;15.338;2022-11-24T04:13:02;94013.25;;;0.98;100.00
47636;BME280;33364;50.766;15.338;2022-11-24T04:15:28;94018.91;;;1.03;100.00
47636;BME280;33364;50.766;15.338;2022-11-24T04:17:54;94024.09;;;1.01;100.00
47636;BME280;33364;50.766;15.338;2022-11-24T04:20:21;94031.00;;;0.99;100.00
47636;BME280;33364;50.766;15.338;2022-11-24T04:22:48;94030.28;;;0.97;100.00
47636;BME280;33364;50.766;15.338;2022-11-24T04:25:14;94033.81;;;0.95;100.00
47636;BME280;33364;50.766;15.338;2022-11-24T04:27:42;94035.38;;;0.97;100.00
47636;BME280;33364;50.766;15.338;2022-11-24T04:30:08;94034.44;;;0.98;100.00
47636;BME280;33364;50.766;15.338;2022-11-24T04:32:34;94039.38;;;1.01;100.00
47636;BME280;33364;50.766;15.338;2022-11-24T04:35:00;94040.91;;;1.04;100.00
47636;BME280;33364;50.766;15.338;2022-11-24T04:37:25;94043.19;;;1.09;100.00
47636;BME280;33364;50.766;15.338;2022-11-24T04:39:51;94037.28;;;1.08;100.00
47636;BME280;33364;50.766;15.338;2022-11-24T04:42:19;94039.75;;;1.10;100.00
47636;BME280;33364;50.766;15.338;2022-11-24T04:44:44;94044.84;;;1.10;100.00
47636;BME280;33364;50.766;15.338;2022-11-24T04:47:19;94063.69;;;1.07;100.00
47636;BME280;33364;50.766;15.338;2022-11-24T04:49:46;94062.13;;;1.04;100.00
47636;BME280;33364;50.766;15.338;2022-11-24T04:52:13;94060.50;;;1.03;100.00
47636;BME280;33364;50.766;15.338;2022-11-24T04:54:39;94060.31;;;1.07;100.00
47636;BME280;33364;50.766;15.338;2022-11-24T04:57:04;94064.34;;;1.11;100.00
47636;BME280;33364;50.766;15.338;2022-11-24T04:59:30;94065.22;;;1.10;100.00
47636;BME280;33364;50.766;15.338;2022-11-24T05:01:56;94062.06;;;1.06;100.00
47636;BME280;33364;50.766;15.338;2022-11-24T05:04:22;94060.50;;;1.03;100.00
47636;BME280;33364;50.766;15.338;2022-11-24T05:06:47;94073.22;;;1.03;100.00
47636;BME280;33364;50.766;15.338;2022-11-24T05:09:14;94065.69;;;1.02;100.00
47636;BME280;33364;50.766;15.338;2022-11-24T05:11:41;94069.03;;;1.02;100.00
47636;BME280;33364;50.766;15.338;2022-11-24T05:14:06;94073.31;;;1.02;100.00
47636;BME280;33364;50.766;15.338;2022-11-24T05:16:32;94075.78;;;1.03;100.00
47636;BME280;33364;50.766;15.338;2022-11-24T05:18:58;94079.97;;;1.04;100.00
47636;BME280;33364;50.766;15.338;2022-11-24T05:21:23;94072.31;;;1.04;100.00
47636;BME280;33364;50.766;15.338;2022-11-24T05:23:49;94078.88;;;1.09;100.00
47636;BME280;33364;50.766;15.338;2022-11-24T05:26:15;94090.63;;;1.11;100.00
47636;BME280;33364;50.766;15.338;2022-11-24T05:28:40;94085.44;;;1.13;100.00
47636;BME280;33364;50.766;15.338;2022-11-24T05:31:06;94078.72;;;1.12;100.00
47636;BME280;33364;50.766;15.338;2022-11-24T05:33:32;94088.81;;;1.13;100.00
47636;BME280;33364;50.766;15.338;2022-11-24T05:36:03;94085.28;;;1.16;100.00
47636;BME280;33364;50.766;15.338;2022-11-24T05:38:29;94086.91;;;1.17;100.00
47636;BME280;33364;50.766;15.338;2022-11-24T05:41:03;94085.34;;;1.14;100.00
47636;BME280;33364;50.766;15.338;2022-11-24T05:43:29;94087.84;;;1.16;100.00
47636;BME280;33364;50.766;15.338;2022-11-24T05:45:59;94084.53;;;1.14;100.00
47636;BME280;33364;50.766;15.338;2022-11-24T05:48:25;94096.28;;;1.16;100.00
47636;BME280;33364;50.766;15.338;2022-11-24T05:50:55;94099.47;;;1.20;100.00
47636;BME280;33364;50.766;15.338;2022-11-24T05:53:21;94099.56;;;1.18;100.00
47636;BME280;33364;50.766;15.338;2022-11-24T05:55:46;94103.84;;;1.18;100.00
47636;BME280;33364;50.766;15.338;2022-11-24T05:58:13;94107.31;;;1.17;100.00
47636;BME280;33364;50.766;15.338;2022-11-24T06:00:38;94109.84;;;1.17;100.00
47636;BME280;33364;50.766;15.338;2022-11-24T06:03:04;94119.22;;;1.16;100.00
47636;BME280;33364;50.766;15.338;2022-11-24T06:05:30;94113.31;;;1.16;100.00
47636;BME280;33364;50.766;15.338;2022-11-24T06:07:58;94129.75;;;1.10;100.00
47636;BME280;33364;50.766;15.338;2022-11-24T06:10:23;94129.03;;;1.08;100.00
47636;BME280;33364;50.766;15.338;2022-11-24T06:12:49;94145.13;;;1.09;100.00
47636;BME280;33364;50.766;15.338;2022-11-24T06:15:15;94141.50;;;1.13;100.00
47636;BME280;33364;50.766;15.338;2022-11-24T06:17:42;94150.69;;;1.15;100.00
47636;BME280;33364;50.766;15.338;2022-11-24T06:20:08;94153.34;;;1.14;100.00
47636;BME280;33364;50.766;15.338;2022-11-24T06:22:36;94157.53;;;1.15;100.00
47636;BME280;33364;50.766;15.338;2022-11-24T06:25:02;94157.63;;;1.13;100.00
47636;BME280;33364;50.766;15.338;2022-11-24T06:27:28;94150.13;;;1.10;100.00
47636;BME280;33364;50.766;15.338;2022-11-24T06:29:54;94154.97;;;1.15;100.00
47636;BME280;33364;50.766;15.338;2022-11-24T06:32:20;94154.34;;;1.11;100.00
47636;BME280;33364;50.766;15.338;2022-11-24T06:34:45;94153.59;;;1.09;100.00
47636;BME280;33364;50.766;15.338;2022-11-24T06:37:11;94156.34;;;1.06;100.00
47636;BME280;33364;50.766;15.338;2022-11-24T06:39:37;94153.84;;;1.04;100.00
47636;BME280;33364;50.766;15.338;2022-11-24T06:42:03;94158.22;;;1.02;100.00
47636;BME280;33364;50.766;15.338;2022-11-24T06:44:29;94157.56;;;0.99;100.00
47636;BME280;33364;50.766;15.338;2022-11-24T06:46:55;94168.78;;;0.96;100.00
47636;BME280;33364;50.766;15.338;2022-11-24T06:49:20;94172.78;;;0.85;100.00
47636;BME280;33364;50.766;15.338;2022-11-24T06:51:46;94172.63;;;0.88;100.00
47636;BME280;33364;50.766;15.338;2022-11-24T06:54:16;94168.25;;;0.90;100.00
47636;BME280;33364;50.766;15.338;2022-11-24T06:56:46;94178.38;;;0.91;100.00
47636;BME280;33364;50.766;15.338;2022-11-24T06:59:17;94181.25;;;0.85;100.00
47636;BME280;33364;50.766;15.338;2022-11-24T07:01:43;94182.09;;;0.86;100.00
47636;BME280;33364;50.766;15.338;2022-11-24T07:04:09;94179.38;;;0.89;100.00
47636;BME280;33364;50.766;15.338;2022-11-24T07:06:36;94180.28;;;0.88;100.00
47636;BME280;33364;50.766;15.338;2022-11-24T07:09:02;94181.53;;;0.81;100.00
47636;BME280;33364;50.766;15.338;2022-11-24T07:11:27;94186.13;;;0.74;100.00
47636;BME280;33364;50.766;15.338;2022-11-24T07:13:53;94199.44;;;0.63;100.00
47636;BME280;33364;50.766;15.338;2022-11-24T07:16:21;94196.66;;;0.68;100.00
47636;BME280;33364;50.766;15.338;2022-11-24T07:18:48;94201.66;;;0.69;100.00
47636;BME280;33364;50.766;15.338;2022-11-24T07:21:16;94205.69;;;0.73;100.00
47636;BME280;33364;50.766;15.338;2022-11-24T07:23:42;94209.03;;;0.74;100.00
47636;BME280;33364;50.766;15.338;2022-11-24T07:26:09;94213.41;;;0.72;100.00
47636;BME280;33364;50.766;15.338;2022-11-24T07:28:35;94213.50;;;0.70;100.00
47636;BME280;33364;50.766;15.338;2022-11-24T07:31:12;94212.00;;;0.66;100.00
47636;BME280;33364;50.766;15.338;2022-11-24T07:33:38;94222.94;;;0.68;100.00
47636;BME280;33364;50.766;15.338;2022-11-24T07:36:06;94218.16;;;0.78;100.00
47636;BME280;33364;50.766;15.338;2022-11-24T07:38:33;94218.06;;;0.80;100.00
47636;BME280;33364;50.766;15.338;2022-11-24T07:41:07;94224.75;;;0.82;100.00
47636;BME280;33364;50.766;15.338;2022-11-24T07:43:34;94229.03;;;0.82;100.00
47636;BME280;33364;50.766;15.338;2022-11-24T07:46:00;94225.56;;;0.83;100.00
47636;BME280;33364;50.766;15.338;2022-11-24T07:48:26;94228.00;;;0.84;100.00
47636;BME280;33364;50.766;15.338;2022-11-24T07:50:52;94232.19;;;0.85;100.00
47636;BME280;33364;50.766;15.338;2022-11-24T07:53:17;94233.69;;;0.89;100.00
47636;BME280;33364;50.766;15.338;2022-11-24T07:55:52;94231.06;;;0.91;100.00
47636;BME280;33364;50.766;15.338;2022-11-24T07:58:17;94229.91;;;0.96;100.00
47636;BME280;33364;50.766;15.338;2022-11-24T08:00:43;94234.75;;;1.01;100.00
47636;BME280;33364;50.766;15.338;2022-11-24T08:03:09;94245.03;;;0.99;100.00
47636;BME280;33364;50.766;15.338;2022-11-24T08:05:35;94241.41;;;1.03;100.00
47636;BME280;33364;50.766;15.338;2022-11-24T08:08:00;94243.13;;;1.03;100.00
47636;BME280;33364;50.766;15.338;2022-11-24T08:10:26;94254.25;;;1.02;100.00
47636;BME280;33364;50.766;15.338;2022-11-24T08:12:52;94248.06;;;1.06;100.00
47636;BME280;33364;50.766;15.338;2022-11-24T08:15:17;94238.34;;;1.13;100.00
47636;BME280;33364;50.766;15.338;2022-11-24T08:17:43;94240.47;;;1.20;100.00
47636;BME280;33364;50.766;15.338;2022-11-24T08:20:09;94243.59;;;1.25;100.00
47636;BME280;33364;50.766;15.338;2022-11-24T08:22:35;94247.81;;;1.26;100.00
47636;BME280;33364;50.766;15.338;2022-11-24T08:25:01;94244.34;;;1.27;100.00
47636;BME280;33364;50.766;15.338;2022-11-24T08:27:28;94244.19;;;1.31;100.00
47636;BME280;33364;50.766;15.338;2022-11-24T08:29:54;94250.72;;;1.35;100.00
47636;BME280;33364;50.766;15.338;2022-11-24T08:32:20;94254.09;;;1.35;100.00
47636;BME280;33364;50.766;15.338;2022-11-24T08:34:45;94253.78;;;1.41;100.00
47636;BME280;33364;50.766;15.338;2022-11-24T08:37:11;94258.63;;;1.46;100.00
47636;BME280;33364;50.766;15.338;2022-11-24T08:39:37;94263.44;;;1.50;100.00
47636;BME280;33364;50.766;15.338;2022-11-24T08:42:02;94258.03;;;1.57;100.00
47636;BME280;33364;50.766;15.338;2022-11-24T08:44:28;94266.31;;;1.60;100.00
47636;BME280;33364;50.766;15.338;2022-11-24T08:46:54;94262.66;;;1.64;100.00
47636;BME280;33364;50.766;15.338;2022-11-24T08:49:20;94266.59;;;1.70;100.00
47636;BME280;33364;50.766;15.338;2022-11-24T08:51:46;94262.81;;;1.77;100.00
47636;BME280;33364;50.766;15.338;2022-11-24T08:54:13;94272.66;;;1.83;100.00
47636;BME280;33364;50.766;15.338;2022-11-24T08:56:40;94260.63;;;1.85;100.00
47636;BME280;33364;50.766;15.338;2022-11-24T08:59:06;94276.75;;;1.86;100.00
47636;BME280;33364;50.766;15.338;2022-11-24T09:01:32;94271.66;;;1.86;100.00
47636;BME280;33364;50.766;15.338;2022-11-24T09:03:58;94266.28;;;1.90;100.00
47636;BME280;33364;50.766;15.338;2022-11-24T09:06:27;94267.69;;;1.96;100.00
47636;BME280;33364;50.766;15.338;2022-11-24T09:08:56;94269.31;;;1.97;100.00
47636;BME280;33364;50.766;15.338;2022-11-24T09:11:23;94270.41;;;1.93;100.00
47636;BME280;33364;50.766;15.338;2022-11-24T09:13:50;94266.28;;;1.90;100.00
47636;BME280;33364;50.766;15.338;2022-11-24T09:16:20;94275.25;;;1.97;100.00
47636;BME280;33364;50.766;15.338;2022-11-24T09:18:53;94271.50;;;2.03;100.00
47636;BME280;33364;50.766;15.338;2022-11-24T09:21:20;94278.81;;;2.09;100.00
47636;BME280;33364;50.766;15.338;2022-11-24T09:23:47;94273.44;;;2.14;100.00
47636;BME280;33364;50.766;15.338;2022-11-24T09:26:16;94278.66;;;2.12;100.00
47636;BME280;33364;50.766;15.338;2022-11-24T09:28:42;94281.00;;;2.15;100.00
47636;BME280;33364;50.766;15.338;2022-11-24T09:31:10;94278.94;;;2.22;100.00
47636;BME280;33364;50.766;15.338;2022-11-24T09:33:37;94280.38;;;2.26;100.00
47636;BME280;33364;50.766;15.338;2022-11-24T09:36:03;94282.38;;;2.35;100.00
47636;BME280;33364;50.766;15.338;2022-11-24T09:38:30;94277.94;;;2.39;100.00
47636;BME280;33364;50.766;15.338;2022-11-24T09:41:29;94280.88;;;2.47;100.00
47636;BME280;33364;50.766;15.338;2022-11-24T09:43:56;94274.56;;;2.52;100.00
47636;BME280;33364;50.766;15.338;2022-11-24T09:49:20;94272.19;;;2.78;100.00
47636;BME280;33364;50.766;15.338;2022-11-24T09:51:50;94273.91;;;2.92;100.00
47636;BME280;33364;50.766;15.338;2022-11-24T09:54:20;94264.00;;;3.00;100.00
47636;BME280;33364;50.766;15.338;2022-11-24T09:56:47;94255.88;;;3.07;100.00
47636;BME280;33364;50.766;15.338;2022-11-24T09:59:19;94264.22;;;3.24;100.00
47636;BME280;33364;50.766;15.338;2022-11-24T10:01:46;94261.72;;;3.36;100.00
47636;BME280;33364;50.766;15.338;2022-11-24T10:04:25;94264.22;;;3.51;100.00
47636;BME280;33364;50.766;15.338;2022-11-24T10:07:21;94262.63;;;3.62;100.00
47636;BME280;33364;50.766;15.338;2022-11-24T10:10:06;94267.97;;;3.72;99.20
47636;BME280;33364;50.766;15.338;2022-11-24T10:16:08;94269.53;;;4.00;97.91
47636;BME280;33364;50.766;15.338;2022-11-24T10:21:21;94270.50;;;4.25;97.87
47636;BME280;33364;50.766;15.338;2022-11-24T10:28:56;94266.59;;;4.45;97.60
47636;BME280;33364;50.766;15.338;2022-11-24T10:31:34;94275.41;;;4.53;96.11
47636;BME280;33364;50.766;15.338;2022-11-24T10:34:12;94275.13;;;4.58;95.74
47636;BME280;33364;50.766;15.338;2022-11-24T10:36:50;94268.88;;;4.62;95.01
47636;BME280;33364;50.766;15.338;2022-11-24T10:42:04;94265.06;;;4.67;95.65
47636;BME280;33364;50.766;15.338;2022-11-24T10:44:32;94258.38;;;4.78;95.93
47636;BME280;33364;50.766;15.338;2022-11-24T10:46:58;94256.50;;;4.92;95.39
47636;BME280;33364;50.766;15.338;2022-11-24T10:49:29;94257.44;;;5.15;95.22
47636;BME280;33364;50.766;15.338;2022-11-24T10:54:27;94263.47;;;5.51;91.74
47636;BME280;33364;50.766;15.338;2022-11-24T10:56:53;94263.09;;;5.68;91.19
47636;BME280;33364;50.766;15.338;2022-11-24T11:01:52;94256.31;;;6.38;90.58
47636;BME280;33364;50.766;15.338;2022-11-24T11:04:33;94257.00;;;6.51;86.76
47636;BME280;33364;50.766;15.338;2022-11-24T11:07:15;94260.53;;;6.50;88.14
47636;BME280;33364;50.766;15.338;2022-11-24T11:09:42;94256.31;;;6.49;86.55
47636;BME280;33364;50.766;15.338;2022-11-24T11:12:19;94268.22;;;6.39;87.28
47636;BME280;33364;50.766;15.338;2022-11-24T11:14:46;94261.19;;;6.30;86.10
47636;BME280;33364;50.766;15.338;2022-11-24T11:17:37;94259.09;;;6.23;86.16
47636;BME280;33364;50.766;15.338;2022-11-24T11:20:30;94263.28;;;6.25;85.75
47636;BME280;33364;50.766;15.338;2022-11-24T11:22:58;94270.53;;;6.31;85.70
47636;BME280;33364;50.766;15.338;2022-11-24T11:25:34;94275.00;;;6.40;84.95
47636;BME280;33364;50.766;15.338;2022-11-24T11:28:29;94279.31;;;6.39;84.35
47636;BME280;33364;50.766;15.338;2022-11-24T11:31:05;94280.00;;;6.30;84.38
47636;BME280;33364;50.766;15.338;2022-11-24T11:36:22;94280.16;;;5.81;84.32
47636;BME280;33364;50.766;15.338;2022-11-24T11:38:47;94275.22;;;5.66;85.98
47636;BME280;33364;50.766;15.338;2022-11-24T11:41:19;94277.03;;;5.53;86.66
47636;BME280;33364;50.766;15.338;2022-11-24T11:43:51;94283.84;;;5.41;87.93
47636;BME280;33364;50.766;15.338;2022-11-24T11:46:19;94285.81;;;5.38;87.77
47636;BME280;33364;50.766;15.338;2022-11-24T11:48:46;94286.34;;;5.30;88.06
47636;BME280;33364;50.766;15.338;2022-11-24T11:56:27;94283.22;;;5.14;90.91
47636;BME280;33364;50.766;15.338;2022-11-24T11:59:03;94282.91;;;5.06;91.10
47636;BME280;33364;50.766;15.338;2022-11-24T12:01:44;94284.72;;;4.92;91.69
47636;BME280;33364;50.766;15.338;2022-11-24T12:15:44;94301.75;;;4.55;94.40
47636;BME280;33364;50.766;15.338;2022-11-24T12:21:16;94291.63;;;4.54;95.99
47636;BME280;33364;50.766;15.338;2022-11-24T12:26:49;94290.06;;;4.51;96.30
47636;BME280;33364;50.766;15.338;2022-11-24T12:30:00;94293.66;;;4.36;95.80
47636;BME280;33364;50.766;15.338;2022-11-24T12:32:56;94300.75;;;4.32;96.73
47636;BME280;33364;50.766;15.338;2022-11-24T12:35:41;94296.63;;;4.30;96.10
47636;BME280;33364;50.766;15.338;2022-11-24T12:43:49;94302.47;;;4.19;97.24
47636;BME280;33364;50.766;15.338;2022-11-24T12:52:23;94316.97;;;4.06;97.20
47636;BME280;33364;50.766;15.338;2022-11-24T12:54:49;94309.59;;;4.01;97.68
47636;BME280;33364;50.766;15.338;2022-11-24T12:57:39;94320.44;;;3.92;97.60
47636;BME280;33364;50.766;15.338;2022-11-24T13:00:28;94317.44;;;3.85;98.06
47636;BME280;33364;50.766;15.338;2022-11-24T13:05:53;94318.94;;;3.75;98.70
47636;BME280;33364;50.766;15.338;2022-11-24T13:08:21;94322.31;;;3.76;98.34
47636;BME280;33364;50.766;15.338;2022-11-24T13:10:47;94318.75;;;3.78;98.48
47636;BME280;33364;50.766;15.338;2022-11-24T13:13:14;94326.34;;;3.80;98.50
47636;BME280;33364;50.766;15.338;2022-11-24T13:18:51;94334.50;;;3.72;98.30
47636;BME280;33364;50.766;15.338;2022-11-24T13:24:04;94334.28;;;3.62;99.27
47636;BME280;33364;50.766;15.338;2022-11-24T13:26:47;94339.84;;;3.55;98.90
47636;BME280;33364;50.766;15.338;2022-11-24T13:42:21;94339.44;;;3.48;99.36
47636;BME280;33364;50.766;15.338;2022-11-24T13:47:36;94348.09;;;3.46;99.60
47636;BME280;33364;50.766;15.338;2022-11-24T13:50:05;94350.06;;;3.42;99.57
47636;BME280;33364;50.766;15.338;2022-11-24T13:52:43;94358.72;;;3.40;99.93
47636;BME280;33364;50.766;15.338;2022-11-24T14:05:59;94365.06;;;3.20;100.00
47636;BME280;33364;50.766;15.338;2022-11-24T14:08:32;94371.47;;;3.13;100.00
47636;BME280;33364;50.766;15.338;2022-11-24T14:10:59;94372.19;;;3.15;100.00
47636;BME280;33364;50.766;15.338;2022-11-24T14:13:28;94375.75;;;3.12;100.00
47636;BME280;33364;50.766;15.338;2022-11-24T14:16:20;94379.41;;;3.08;100.00
47636;BME280;33364;50.766;15.338;2022-11-24T14:18:48;94377.94;;;3.04;100.00
47636;BME280;33364;50.766;15.338;2022-11-24T14:23:55;94377.78;;;2.93;100.00
47636;BME280;33364;50.766;15.338;2022-11-24T14:26:29;94382.25;;;2.89;100.00
47636;BME280;33364;50.766;15.338;2022-11-24T14:29:13;94375.28;;;2.91;100.00
47636;BME280;33364;50.766;15.338;2022-11-24T14:31:40;94385.50;;;2.91;100.00
47636;BME280;33364;50.766;15.338;2022-11-24T14:36:38;94393.75;;;2.96;100.00
47636;BME280;33364;50.766;15.338;2022-11-24T14:39:04;94386.97;;;2.95;100.00
47636;BME280;33364;50.766;15.338;2022-11-24T14:41:31;94392.19;;;2.94;100.00
47636;BME280;33364;50.766;15.338;2022-11-24T14:44:22;94399.97;;;2.92;100.00